sensor_id;sensor_type;location;lat;lon;timestamp;pressure;altitude;pressure_sealevel;temperature
71463;BMP180;59266;52.608;13.260;2024-01-30T00:01:53;102524.00;;;1.20
71463;BMP180;59266;52.608;13.260;2024-01-30T00:04:20;102524.00;;;1.20
71463;BMP180;59266;52.608;13.260;2024-01-30T00:06:47;102520.00;;;1.20
71463;BMP180;59266;52.608;13.260;2024-01-30T00:09:13;102527.00;;;1.10
71463;BMP180;59266;52.608;13.260;2024-01-30T00:11:40;102527.00;;;1.20
71463;BMP180;59266;52.608;13.260;2024-01-30T00:14:06;102523.00;;;1.10
71463;BMP180;59266;52.608;13.260;2024-01-30T00:16:33;102531.00;;;1.10
71463;BMP180;59266;52.608;13.260;2024-01-30T00:19:00;102520.00;;;1.10
71463;BMP180;59266;52.608;13.260;2024-01-30T00:21:28;102524.00;;;1.10
71463;BMP180;59266;52.608;13.260;2024-01-30T00:23:55;102521.00;;;1.10
71463;BMP180;59266;52.608;13.260;2024-01-30T00:26:22;102517.00;;;1.10
71463;BMP180;59266;52.608;13.260;2024-01-30T00:28:49;102524.00;;;1.10
71463;BMP180;59266;52.608;13.260;2024-01-30T00:31:16;102525.00;;;1.00
71463;BMP180;59266;52.608;13.260;2024-01-30T00:33:42;102522.00;;;1.00
71463;BMP180;59266;52.608;13.260;2024-01-30T00:36:10;102514.00;;;1.00
71463;BMP180;59266;52.608;13.260;2024-01-30T00:38:37;102515.00;;;0.90
71463;BMP180;59266;52.608;13.260;2024-01-30T00:41:03;102506.00;;;0.90
71463;BMP180;59266;52.608;13.260;2024-01-30T00:43:30;102520.00;;;0.80
71463;BMP180;59266;52.608;13.260;2024-01-30T00:45:58;102515.00;;;0.70
71463;BMP180;59266;52.608;13.260;2024-01-30T00:48:29;102520.00;;;0.80
71463;BMP180;59266;52.608;13.260;2024-01-30T00:50:56;102509.00;;;0.80
71463;BMP180;59266;52.608;13.260;2024-01-30T00:53:23;102511.00;;;0.80
71463;BMP180;59266;52.608;13.260;2024-01-30T00:55:50;102515.00;;;0.80
71463;BMP180;59266;52.608;13.260;2024-01-30T00:58:17;102520.00;;;0.80
71463;BMP180;59266;52.608;13.260;2024-01-30T01:00:48;102517.00;;;0.80
71463;BMP180;59266;52.608;13.260;2024-01-30T01:03:15;102517.00;;;0.80
71463;BMP180;59266;52.608;13.260;2024-01-30T01:05:42;102510.00;;;0.80
71463;BMP180;59266;52.608;13.260;2024-01-30T01:08:09;102515.00;;;0.80
71463;BMP180;59266;52.608;13.260;2024-01-30T01:10:36;102518.00;;;0.70
71463;BMP180;59266;52.608;13.260;2024-01-30T01:13:02;102510.00;;;0.70
71463;BMP180;59266;52.608;13.260;2024-01-30T01:15:29;102508.00;;;0.60
71463;BMP180;59266;52.608;13.260;2024-01-30T01:17:56;102528.00;;;0.70
71463;BMP180;59266;52.608;13.260;2024-01-30T01:20:22;102521.00;;;0.70
71463;BMP180;59266;52.608;13.260;2024-01-30T01:22:49;102516.00;;;0.70
71463;BMP180;59266;52.608;13.260;2024-01-30T01:25:16;102511.00;;;0.70
71463;BMP180;59266;52.608;13.260;2024-01-30T01:27:43;102520.00;;;0.70
71463;BMP180;59266;52.608;13.260;2024-01-30T01:30:11;102510.00;;;0.70
71463;BMP180;59266;52.608;13.260;2024-01-30T01:32:40;102515.00;;;0.70
71463;BMP180;59266;52.608;13.260;2024-01-30T01:35:11;102517.00;;;0.80
71463;BMP180;59266;52.608;13.260;2024-01-30T01:37:38;102518.00;;;0.70
71463;BMP180;59266;52.608;13.260;2024-01-30T01:40:06;102513.00;;;0.60
71463;BMP180;59266;52.608;13.260;2024-01-30T01:42:33;102509.00;;;0.70
71463;BMP180;59266;52.608;13.260;2024-01-30T01:44:59;102514.00;;;0.70
71463;BMP180;59266;52.608;13.260;2024-01-30T01:47:26;102508.00;;;0.50
71463;BMP180;59266;52.608;13.260;2024-01-30T01:49:52;102509.00;;;0.70
71463;BMP180;59266;52.608;13.260;2024-01-30T01:52:19;102511.00;;;0.70
71463;BMP180;59266;52.608;13.260;2024-01-30T01:54:46;102510.00;;;0.70
71463;BMP180;59266;52.608;13.260;2024-01-30T01:57:12;102506.00;;;0.70
71463;BMP180;59266;52.608;13.260;2024-01-30T01:59:39;102505.00;;;0.70
71463;BMP180;59266;52.608;13.260;2024-01-30T02:02:08;102506.00;;;0.70
71463;BMP180;59266;52.608;13.260;2024-01-30T02:04:37;102509.00;;;0.70
71463;BMP180;59266;52.608;13.260;2024-01-30T02:07:04;102512.00;;;0.60
71463;BMP180;59266;52.608;13.260;2024-01-30T02:09:33;102515.00;;;0.60
71463;BMP180;59266;52.608;13.260;2024-01-30T02:12:00;102509.00;;;0.70
71463;BMP180;59266;52.608;13.260;2024-01-30T02:14:26;102507.00;;;0.70
71463;BMP180;59266;52.608;13.260;2024-01-30T02:16:56;102503.00;;;0.70
71463;BMP180;59266;52.608;13.260;2024-01-30T02:19:23;102505.00;;;0.70
71463;BMP180;59266;52.608;13.260;2024-01-30T02:21:50;102513.00;;;0.70
71463;BMP180;59266;52.608;13.260;2024-01-30T02:24:16;102511.00;;;0.70
71463;BMP180;59266;52.608;13.260;2024-01-30T02:26:43;102507.00;;;0.70
71463;BMP180;59266;52.608;13.260;2024-01-30T02:29:13;102510.00;;;0.80
71463;BMP180;59266;52.608;13.260;2024-01-30T02:31:40;102508.00;;;0.80
71463;BMP180;59266;52.608;13.260;2024-01-30T02:34:06;102518.00;;;0.70
71463;BMP180;59266;52.608;13.260;2024-01-30T02:36:34;102516.00;;;0.70
71463;BMP180;59266;52.608;13.260;2024-01-30T02:39:00;102506.00;;;0.80
71463;BMP180;59266;52.608;13.260;2024-01-30T02:41:27;102513.00;;;0.70
71463;BMP180;59266;52.608;13.260;2024-01-30T02:43:53;102500.00;;;0.70
71463;BMP180;59266;52.608;13.260;2024-01-30T02:46:23;102503.00;;;0.70
71463;BMP180;59266;52.608;13.260;2024-01-30T02:48:49;102498.00;;;0.60
71463;BMP180;59266;52.608;13.260;2024-01-30T02:51:16;102500.00;;;0.70
71463;BMP180;59266;52.608;13.260;2024-01-30T02:53:43;102495.00;;;0.70
71463;BMP180;59266;52.608;13.260;2024-01-30T02:56:09;102495.00;;;0.60
71463;BMP180;59266;52.608;13.260;2024-01-30T02:58:39;102497.00;;;0.70
71463;BMP180;59266;52.608;13.260;2024-01-30T03:01:07;102491.00;;;0.70
71463;BMP180;59266;52.608;13.260;2024-01-30T03:03:33;102498.00;;;0.70
71463;BMP180;59266;52.608;13.260;2024-01-30T03:06:03;102487.00;;;0.60
71463;BMP180;59266;52.608;13.260;2024-01-30T03:08:29;102496.00;;;0.60
71463;BMP180;59266;52.608;13.260;2024-01-30T03:10:56;102480.00;;;0.60
71463;BMP180;59266;52.608;13.260;2024-01-30T03:13:22;102484.00;;;0.50
71463;BMP180;59266;52.608;13.260;2024-01-30T03:15:51;102480.00;;;0.50
71463;BMP180;59266;52.608;13.260;2024-01-30T03:18:18;102480.00;;;0.50
71463;BMP180;59266;52.608;13.260;2024-01-30T03:20:45;102475.00;;;0.50
71463;BMP180;59266;52.608;13.260;2024-01-30T03:23:11;102480.00;;;0.50
71463;BMP180;59266;52.608;13.260;2024-01-30T03:25:38;102474.00;;;0.50
71463;BMP180;59266;52.608;13.260;2024-01-30T03:28:05;102471.00;;;0.40
71463;BMP180;59266;52.608;13.260;2024-01-30T03:30:32;102475.00;;;0.40
71463;BMP180;59266;52.608;13.260;2024-01-30T03:33:00;102471.00;;;0.40
71463;BMP180;59266;52.608;13.260;2024-01-30T03:35:29;102471.00;;;0.30
71463;BMP180;59266;52.608;13.260;2024-01-30T03:37:56;102474.00;;;0.30
71463;BMP180;59266;52.608;13.260;2024-01-30T03:40:22;102464.00;;;0.40
71463;BMP180;59266;52.608;13.260;2024-01-30T03:42:49;102462.00;;;0.30
71463;BMP180;59266;52.608;13.260;2024-01-30T03:45:18;102466.00;;;0.50
71463;BMP180;59266;52.608;13.260;2024-01-30T03:47:46;102470.00;;;0.50
71463;BMP180;59266;52.608;13.260;2024-01-30T03:50:12;102470.00;;;0.50
71463;BMP180;59266;52.608;13.260;2024-01-30T03:52:39;102468.00;;;0.40
71463;BMP180;59266;52.608;13.260;2024-01-30T03:55:06;102477.00;;;0.40
71463;BMP180;59266;52.608;13.260;2024-01-30T03:57:32;102478.00;;;0.40
71463;BMP180;59266;52.608;13.260;2024-01-30T04:00:01;102466.00;;;0.40
71463;BMP180;59266;52.608;13.260;2024-01-30T04:02:31;102472.00;;;0.30
71463;BMP180;59266;52.608;13.260;2024-01-30T04:04:58;102472.00;;;0.40
71463;BMP180;59266;52.608;13.260;2024-01-30T04:07:25;102473.00;;;0.30
71463;BMP180;59266;52.608;13.260;2024-01-30T04:09:52;102472.00;;;0.30
71463;BMP180;59266;52.608;13.260;2024-01-30T04:12:18;102472.00;;;0.20
71463;BMP180;59266;52.608;13.260;2024-01-30T04:14:45;102470.00;;;0.30
71463;BMP180;59266;52.608;13.260;2024-01-30T04:17:15;102466.00;;;0.30
71463;BMP180;59266;52.608;13.260;2024-01-30T04:19:41;102483.00;;;0.30
71463;BMP180;59266;52.608;13.260;2024-01-30T04:22:08;102477.00;;;0.40
71463;BMP180;59266;52.608;13.260;2024-01-30T04:24:35;102480.00;;;0.30
71463;BMP180;59266;52.608;13.260;2024-01-30T04:27:01;102473.00;;;0.40
71463;BMP180;59266;52.608;13.260;2024-01-30T04:29:28;102466.00;;;0.30
71463;BMP180;59266;52.608;13.260;2024-01-30T04:31:55;102476.00;;;0.20
71463;BMP180;59266;52.608;13.260;2024-01-30T04:34:21;102465.00;;;0.40
71463;BMP180;59266;52.608;13.260;2024-01-30T04:36:48;102465.00;;;0.30
71463;BMP180;59266;52.608;13.260;2024-01-30T04:39:15;102463.00;;;0.40
71463;BMP180;59266;52.608;13.260;2024-01-30T04:41:41;102462.00;;;0.40
71463;BMP180;59266;52.608;13.260;2024-01-30T04:44:08;102471.00;;;0.30
71463;BMP180;59266;52.608;13.260;2024-01-30T04:46:34;102461.00;;;0.20
71463;BMP180;59266;52.608;13.260;2024-01-30T04:49:01;102457.00;;;0.20
71463;BMP180;59266;52.608;13.260;2024-01-30T04:51:28;102468.00;;;0.10
71463;BMP180;59266;52.608;13.260;2024-01-30T04:53:55;102452.00;;;0.20
71463;BMP180;59266;52.608;13.260;2024-01-30T04:56:21;102458.00;;;0.20
71463;BMP180;59266;52.608;13.260;2024-01-30T04:58:48;102466.00;;;0.20
71463;BMP180;59266;52.608;13.260;2024-01-30T05:01:15;102467.00;;;0.30
71463;BMP180;59266;52.608;13.260;2024-01-30T05:03:42;102460.00;;;0.30
71463;BMP180;59266;52.608;13.260;2024-01-30T05:06:09;102449.00;;;0.40
71463;BMP180;59266;52.608;13.260;2024-01-30T05:08:36;102453.00;;;0.40
71463;BMP180;59266;52.608;13.260;2024-01-30T05:11:08;102449.00;;;0.30
71463;BMP180;59266;52.608;13.260;2024-01-30T05:13:35;102453.00;;;0.20
71463;BMP180;59266;52.608;13.260;2024-01-30T05:16:02;102448.00;;;0.30
71463;BMP180;59266;52.608;13.260;2024-01-30T05:18:30;102456.00;;;0.30
71463;BMP180;59266;52.608;13.260;2024-01-30T05:20:57;102460.00;;;0.30
71463;BMP180;59266;52.608;13.260;2024-01-30T05:23:24;102456.00;;;0.20
71463;BMP180;59266;52.608;13.260;2024-01-30T05:25:51;102457.00;;;0.20
71463;BMP180;59266;52.608;13.260;2024-01-30T05:28:17;102450.00;;;0.20
71463;BMP180;59266;52.608;13.260;2024-01-30T05:30:46;102457.00;;;0.10
71463;BMP180;59266;52.608;13.260;2024-01-30T05:33:12;102455.00;;;0.20
71463;BMP180;59266;52.608;13.260;2024-01-30T05:35:40;102454.00;;;0.20
71463;BMP180;59266;52.608;13.260;2024-01-30T05:38:06;102449.00;;;0.20
71463;BMP180;59266;52.608;13.260;2024-01-30T05:40:33;102452.00;;;0.10
71463;BMP180;59266;52.608;13.260;2024-01-30T05:42:59;102452.00;;;0.00
71463;BMP180;59266;52.608;13.260;2024-01-30T05:45:28;102450.00;;;0.00
71463;BMP180;59266;52.608;13.260;2024-01-30T05:47:54;102448.00;;;0.10
71463;BMP180;59266;52.608;13.260;2024-01-30T05:50:21;102445.00;;;0.10
71463;BMP180;59266;52.608;13.260;2024-01-30T05:52:52;102443.00;;;0.00
71463;BMP180;59266;52.608;13.260;2024-01-30T05:55:18;102445.00;;;0.10
71463;BMP180;59266;52.608;13.260;2024-01-30T05:57:45;102450.00;;;0.10
71463;BMP180;59266;52.608;13.260;2024-01-30T06:00:12;102434.00;;;0.00
71463;BMP180;59266;52.608;13.260;2024-01-30T06:02:39;102446.00;;;0.10
71463;BMP180;59266;52.608;13.260;2024-01-30T06:05:09;102438.00;;;0.10
71463;BMP180;59266;52.608;13.260;2024-01-30T06:07:36;102437.00;;;0.20
71463;BMP180;59266;52.608;13.260;2024-01-30T06:10:03;102433.00;;;0.20
71463;BMP180;59266;52.608;13.260;2024-01-30T06:12:30;102451.00;;;0.20
71463;BMP180;59266;52.608;13.260;2024-01-30T06:14:57;102436.00;;;0.20
71463;BMP180;59266;52.608;13.260;2024-01-30T06:17:23;102444.00;;;0.30
71463;BMP180;59266;52.608;13.260;2024-01-30T06:19:50;102428.00;;;0.30
71463;BMP180;59266;52.608;13.260;2024-01-30T06:22:20;102441.00;;;0.30
71463;BMP180;59266;52.608;13.260;2024-01-30T06:24:46;102447.00;;;0.20
71463;BMP180;59266;52.608;13.260;2024-01-30T06:27:15;102438.00;;;0.20
71463;BMP180;59266;52.608;13.260;2024-01-30T06:29:45;102442.00;;;0.30
71463;BMP180;59266;52.608;13.260;2024-01-30T06:32:12;102439.00;;;0.30
71463;BMP180;59266;52.608;13.260;2024-01-30T06:34:38;102442.00;;;0.30
71463;BMP180;59266;52.608;13.260;2024-01-30T06:37:07;102443.00;;;0.20
71463;BMP180;59266;52.608;13.260;2024-01-30T06:39:33;102445.00;;;0.20
71463;BMP180;59266;52.608;13.260;2024-01-30T06:42:00;102443.00;;;0.30
71463;BMP180;59266;52.608;13.260;2024-01-30T06:44:27;102445.00;;;0.30
71463;BMP180;59266;52.608;13.260;2024-01-30T06:46:55;102440.00;;;0.30
71463;BMP180;59266;52.608;13.260;2024-01-30T06:49:22;102439.00;;;0.40
71463;BMP180;59266;52.608;13.260;2024-01-30T06:51:49;102430.00;;;0.40
71463;BMP180;59266;52.608;13.260;2024-01-30T06:54:15;102431.00;;;0.50
71463;BMP180;59266;52.608;13.260;2024-01-30T06:56:43;102433.00;;;0.40
71463;BMP180;59266;52.608;13.260;2024-01-30T06:59:14;102430.00;;;0.50
71463;BMP180;59266;52.608;13.260;2024-01-30T07:01:44;102431.00;;;0.50
71463;BMP180;59266;52.608;13.260;2024-01-30T07:04:11;102438.00;;;0.50
71463;BMP180;59266;52.608;13.260;2024-01-30T07:06:38;102441.00;;;0.50
71463;BMP180;59266;52.608;13.260;2024-01-30T07:09:05;102443.00;;;0.40
71463;BMP180;59266;52.608;13.260;2024-01-30T07:11:32;102438.00;;;0.50
71463;BMP180;59266;52.608;13.260;2024-01-30T07:13:59;102435.00;;;0.50
71463;BMP180;59266;52.608;13.260;2024-01-30T07:16:26;102436.00;;;0.50
71463;BMP180;59266;52.608;13.260;2024-01-30T07:18:55;102416.00;;;0.70
71463;BMP180;59266;52.608;13.260;2024-01-30T07:21:24;102418.00;;;0.80
71463;BMP180;59266;52.608;13.260;2024-01-30T07:26:54;102419.00;;;1.10
71463;BMP180;59266;52.608;13.260;2024-01-30T07:29:24;102414.00;;;1.20
71463;BMP180;59266;52.608;13.260;2024-01-30T07:31:51;102411.00;;;1.20
71463;BMP180;59266;52.608;13.260;2024-01-30T07:34:17;102414.00;;;1.30
71463;BMP180;59266;52.608;13.260;2024-01-30T07:36:45;102420.00;;;1.40
71463;BMP180;59266;52.608;13.260;2024-01-30T07:39:18;102418.00;;;1.40
71463;BMP180;59266;52.608;13.260;2024-01-30T07:41:45;102413.00;;;1.50
71463;BMP180;59266;52.608;13.260;2024-01-30T07:44:12;102419.00;;;1.60
71463;BMP180;59266;52.608;13.260;2024-01-30T07:46:39;102411.00;;;1.70
71463;BMP180;59266;52.608;13.260;2024-01-30T07:49:05;102410.00;;;1.80
71463;BMP180;59266;52.608;13.260;2024-01-30T07:51:32;102414.00;;;1.80
71463;BMP180;59266;52.608;13.260;2024-01-30T07:53:59;102410.00;;;1.90
71463;BMP180;59266;52.608;13.260;2024-01-30T07:56:26;102406.00;;;2.00
71463;BMP180;59266;52.608;13.260;2024-01-30T07:58:55;102415.00;;;2.00
71463;BMP180;59266;52.608;13.260;2024-01-30T08:01:22;102423.00;;;2.30
71463;BMP180;59266;52.608;13.260;2024-01-30T08:03:51;102428.00;;;2.30
71463;BMP180;59266;52.608;13.260;2024-01-30T08:06:18;102416.00;;;2.40
71463;BMP180;59266;52.608;13.260;2024-01-30T08:08:47;102420.00;;;2.60
71463;BMP180;59266;52.608;13.260;2024-01-30T08:11:13;102422.00;;;2.70
71463;BMP180;59266;52.608;13.260;2024-01-30T08:13:40;102419.00;;;2.70
71463;BMP180;59266;52.608;13.260;2024-01-30T08:16:06;102425.00;;;2.80
71463;BMP180;59266;52.608;13.260;2024-01-30T08:18:34;102422.00;;;2.90
71463;BMP180;59266;52.608;13.260;2024-01-30T08:21:03;102417.00;;;3.00
71463;BMP180;59266;52.608;13.260;2024-01-30T08:23:30;102414.00;;;3.00
71463;BMP180;59266;52.608;13.260;2024-01-30T08:25:57;102412.00;;;3.10
71463;BMP180;59266;52.608;13.260;2024-01-30T08:28:30;102408.00;;;3.40
71463;BMP180;59266;52.608;13.260;2024-01-30T08:30:57;102403.00;;;3.50
71463;BMP180;59266;52.608;13.260;2024-01-30T08:33:23;102400.00;;;3.60
71463;BMP180;59266;52.608;13.260;2024-01-30T08:35:50;102402.00;;;3.70
71463;BMP180;59266;52.608;13.260;2024-01-30T08:38:17;102402.00;;;3.80
71463;BMP180;59266;52.608;13.260;2024-01-30T08:40:46;102411.00;;;3.90
71463;BMP180;59266;52.608;13.260;2024-01-30T08:43:13;102409.00;;;4.10
71463;BMP180;59266;52.608;13.260;2024-01-30T08:45:40;102398.00;;;4.10
71463;BMP180;59266;52.608;13.260;2024-01-30T08:48:07;102399.00;;;4.20
71463;BMP180;59266;52.608;13.260;2024-01-30T08:50:34;102397.00;;;4.40
71463;BMP180;59266;52.608;13.260;2024-01-30T08:53:01;102397.00;;;4.50
71463;BMP180;59266;52.608;13.260;2024-01-30T08:55:27;102399.00;;;4.50
71463;BMP180;59266;52.608;13.260;2024-01-30T08:57:55;102398.00;;;4.70
71463;BMP180;59266;52.608;13.260;2024-01-30T09:00:22;102392.00;;;4.70
71463;BMP180;59266;52.608;13.260;2024-01-30T09:02:48;102393.00;;;4.80
71463;BMP180;59266;52.608;13.260;2024-01-30T09:05:15;102396.00;;;5.00
71463;BMP180;59266;52.608;13.260;2024-01-30T09:07:42;102402.00;;;5.00
71463;BMP180;59266;52.608;13.260;2024-01-30T09:10:11;102393.00;;;5.00
71463;BMP180;59266;52.608;13.260;2024-01-30T09:12:40;102389.00;;;5.10
71463;BMP180;59266;52.608;13.260;2024-01-30T09:15:07;102389.00;;;5.20
71463;BMP180;59266;52.608;13.260;2024-01-30T09:17:33;102396.00;;;5.50
71463;BMP180;59266;52.608;13.260;2024-01-30T09:20:00;102394.00;;;5.60
71463;BMP180;59266;52.608;13.260;2024-01-30T09:22:27;102395.00;;;5.60
71463;BMP180;59266;52.608;13.260;2024-01-30T09:24:54;102400.00;;;5.70
71463;BMP180;59266;52.608;13.260;2024-01-30T09:27:21;102397.00;;;5.90
71463;BMP180;59266;52.608;13.260;2024-01-30T09:29:50;102393.00;;;6.00
71463;BMP180;59266;52.608;13.260;2024-01-30T09:32:20;102398.00;;;6.10
71463;BMP180;59266;52.608;13.260;2024-01-30T09:34:46;102391.00;;;6.10
71463;BMP180;59266;52.608;13.260;2024-01-30T09:37:16;102402.00;;;6.30
71463;BMP180;59266;52.608;13.260;2024-01-30T09:39:49;102394.00;;;6.30
71463;BMP180;59266;52.608;13.260;2024-01-30T09:42:30;102383.00;;;6.50
71463;BMP180;59266;52.608;13.260;2024-01-30T09:44:59;102389.00;;;6.50
71463;BMP180;59266;52.608;13.260;2024-01-30T09:47:26;102381.00;;;6.50
71463;BMP180;59266;52.608;13.260;2024-01-30T09:49:53;102385.00;;;6.50
71463;BMP180;59266;52.608;13.260;2024-01-30T09:52:21;102387.00;;;6.80
71463;BMP180;59266;52.608;13.260;2024-01-30T09:54:51;102391.00;;;7.00
71463;BMP180;59266;52.608;13.260;2024-01-30T09:57:19;102386.00;;;6.90
71463;BMP180;59266;52.608;13.260;2024-01-30T09:59:45;102384.00;;;7.00
71463;BMP180;59266;52.608;13.260;2024-01-30T10:02:12;102374.00;;;6.90
71463;BMP180;59266;52.608;13.260;2024-01-30T10:04:39;102376.00;;;7.10
71463;BMP180;59266;52.608;13.260;2024-01-30T10:07:15;102381.00;;;7.00
71463;BMP180;59266;52.608;13.260;2024-01-30T10:09:42;102373.00;;;7.20
71463;BMP180;59266;52.608;13.260;2024-01-30T10:12:09;102370.00;;;7.20
71463;BMP180;59266;52.608;13.260;2024-01-30T10:14:40;102368.00;;;7.00
71463;BMP180;59266;52.608;13.260;2024-01-30T10:17:12;102359.00;;;7.30
71463;BMP180;59266;52.608;13.260;2024-01-30T10:19:54;102377.00;;;7.40
71463;BMP180;59266;52.608;13.260;2024-01-30T10:22:22;102377.00;;;7.30
71463;BMP180;59266;52.608;13.260;2024-01-30T10:24:50;102366.00;;;7.40
71463;BMP180;59266;52.608;13.260;2024-01-30T10:27:25;102373.00;;;7.40
71463;BMP180;59266;52.608;13.260;2024-01-30T10:29:51;102370.00;;;7.60
71463;BMP180;59266;52.608;13.260;2024-01-30T10:32:19;102370.00;;;7.80
71463;BMP180;59266;52.608;13.260;2024-01-30T10:34:46;102370.00;;;7.80
71463;BMP180;59266;52.608;13.260;2024-01-30T10:37:15;102365.00;;;7.70
71463;BMP180;59266;52.608;13.260;2024-01-30T10:39:44;102361.00;;;7.90
71463;BMP180;59266;52.608;13.260;2024-01-30T10:42:26;102371.00;;;7.90
71463;BMP180;59266;52.608;13.260;2024-01-30T10:45:10;102367.00;;;8.00
71463;BMP180;59266;52.608;13.260;2024-01-30T10:47:43;102361.00;;;8.00
71463;BMP180;59266;52.608;13.260;2024-01-30T10:50:14;102358.00;;;8.30
71463;BMP180;59266;52.608;13.260;2024-01-30T10:52:42;102361.00;;;8.10
71463;BMP180;59266;52.608;13.260;2024-01-30T10:55:08;102360.00;;;8.20
71463;BMP180;59266;52.608;13.260;2024-01-30T10:57:36;102357.00;;;8.20
71463;BMP180;59266;52.608;13.260;2024-01-30T11:00:14;102365.00;;;8.30
71463;BMP180;59266;52.608;13.260;2024-01-30T11:02:45;102364.00;;;8.50
71463;BMP180;59266;52.608;13.260;2024-01-30T11:05:13;102353.00;;;8.60
71463;BMP180;59266;52.608;13.260;2024-01-30T11:07:42;102360.00;;;8.60
71463;BMP180;59266;52.608;13.260;2024-01-30T11:10:11;102355.00;;;8.70
71463;BMP180;59266;52.608;13.260;2024-01-30T11:12:41;102357.00;;;8.70
71463;BMP180;59266;52.608;13.260;2024-01-30T11:15:14;102352.00;;;8.70
71463;BMP180;59266;52.608;13.260;2024-01-30T11:20:32;102348.00;;;10.10
71463;BMP180;59266;52.608;13.260;2024-01-30T11:23:02;102354.00;;;10.40
71463;BMP180;59266;52.608;13.260;2024-01-30T11:25:33;102352.00;;;10.80
71463;BMP180;59266;52.608;13.260;2024-01-30T11:28:00;102360.00;;;9.90
71463;BMP180;59266;52.608;13.260;2024-01-30T11:30:28;102356.00;;;9.90
71463;BMP180;59266;52.608;13.260;2024-01-30T11:33:10;102355.00;;;9.40
71463;BMP180;59266;52.608;13.260;2024-01-30T11:35:42;102348.00;;;9.50
71463;BMP180;59266;52.608;13.260;2024-01-30T11:38:13;102345.00;;;9.40
71463;BMP180;59266;52.608;13.260;2024-01-30T11:40:40;102361.00;;;9.30
71463;BMP180;59266;52.608;13.260;2024-01-30T11:43:08;102353.00;;;9.60
71463;BMP180;59266;52.608;13.260;2024-01-30T11:45:36;102357.00;;;9.50
71463;BMP180;59266;52.608;13.260;2024-01-30T11:48:04;102348.00;;;9.20
71463;BMP180;59266;52.608;13.260;2024-01-30T11:50:39;102347.00;;;9.50
71463;BMP180;59266;52.608;13.260;2024-01-30T11:53:09;102337.00;;;9.70
71463;BMP180;59266;52.608;13.260;2024-01-30T11:55:37;102344.00;;;9.50
71463;BMP180;59266;52.608;13.260;2024-01-30T11:58:04;102340.00;;;9.80
71463;BMP180;59266;52.608;13.260;2024-01-30T12:00:34;102341.00;;;10.00
71463;BMP180;59266;52.608;13.260;2024-01-30T12:03:02;102331.00;;;10.60
71463;BMP180;59266;52.608;13.260;2024-01-30T12:05:30;102328.00;;;10.60
71463;BMP180;59266;52.608;13.260;2024-01-30T12:07:57;102321.00;;;10.50
71463;BMP180;59266;52.608;13.260;2024-01-30T12:10:28;102330.00;;;10.80
71463;BMP180;59266;52.608;13.260;2024-01-30T12:12:56;102320.00;;;10.70
71463;BMP180;59266;52.608;13.260;2024-01-30T12:15:25;102311.00;;;11.00
71463;BMP180;59266;52.608;13.260;2024-01-30T12:17:52;102320.00;;;10.90
71463;BMP180;59266;52.608;13.260;2024-01-30T12:20:22;102308.00;;;10.70
71463;BMP180;59266;52.608;13.260;2024-01-30T12:23:08;102305.00;;;11.40
71463;BMP180;59266;52.608;13.260;2024-01-30T12:25:38;102298.00;;;11.20
71463;BMP180;59266;52.608;13.260;2024-01-30T12:28:05;102296.00;;;10.90
71463;BMP180;59266;52.608;13.260;2024-01-30T12:30:32;102293.00;;;10.80
71463;BMP180;59266;52.608;13.260;2024-01-30T12:33:01;102289.00;;;10.60
71463;BMP180;59266;52.608;13.260;2024-01-30T12:35:35;102295.00;;;10.30
71463;BMP180;59266;52.608;13.260;2024-01-30T12:38:14;102285.00;;;10.60
71463;BMP180;59266;52.608;13.260;2024-01-30T12:40:41;102281.00;;;10.80
71463;BMP180;59266;52.608;13.260;2024-01-30T12:43:09;102284.00;;;11.30
71463;BMP180;59266;52.608;13.260;2024-01-30T12:45:36;102278.00;;;11.50
71463;BMP180;59266;52.608;13.260;2024-01-30T12:48:03;102268.00;;;10.80
71463;BMP180;59266;52.608;13.260;2024-01-30T12:50:30;102271.00;;;11.00
71463;BMP180;59266;52.608;13.260;2024-01-30T12:52:56;102268.00;;;11.20
71463;BMP180;59266;52.608;13.260;2024-01-30T12:55:23;102266.00;;;11.40
71463;BMP180;59266;52.608;13.260;2024-01-30T12:57:51;102277.00;;;11.40
71463;BMP180;59266;52.608;13.260;2024-01-30T13:00:17;102264.00;;;10.80
71463;BMP180;59266;52.608;13.260;2024-01-30T13:02:44;102271.00;;;10.30
71463;BMP180;59266;52.608;13.260;2024-01-30T13:05:11;102267.00;;;10.20
71463;BMP180;59266;52.608;13.260;2024-01-30T13:07:42;102268.00;;;10.30
71463;BMP180;59266;52.608;13.260;2024-01-30T13:10:15;102271.00;;;10.20
71463;BMP180;59266;52.608;13.260;2024-01-30T13:12:41;102267.00;;;10.20
71463;BMP180;59266;52.608;13.260;2024-01-30T13:15:11;102275.00;;;10.00
71463;BMP180;59266;52.608;13.260;2024-01-30T13:17:38;102274.00;;;10.30
71463;BMP180;59266;52.608;13.260;2024-01-30T13:20:06;102278.00;;;10.20
71463;BMP180;59266;52.608;13.260;2024-01-30T13:22:38;102277.00;;;10.40
71463;BMP180;59266;52.608;13.260;2024-01-30T13:25:06;102276.00;;;10.20
71463;BMP180;59266;52.608;13.260;2024-01-30T13:27:34;102276.00;;;10.40
71463;BMP180;59266;52.608;13.260;2024-01-30T13:30:04;102274.00;;;10.30
71463;BMP180;59266;52.608;13.260;2024-01-30T13:32:30;102278.00;;;10.30
71463;BMP180;59266;52.608;13.260;2024-01-30T13:34:57;102279.00;;;10.30
71463;BMP180;59266;52.608;13.260;2024-01-30T13:37:25;102272.00;;;10.20
71463;BMP180;59266;52.608;13.260;2024-01-30T13:39:51;102277.00;;;10.00
71463;BMP180;59266;52.608;13.260;2024-01-30T13:42:18;102268.00;;;10.20
71463;BMP180;59266;52.608;13.260;2024-01-30T13:44:45;102275.00;;;10.00
71463;BMP180;59266;52.608;13.260;2024-01-30T13:47:12;102269.00;;;10.10
71463;BMP180;59266;52.608;13.260;2024-01-30T13:49:38;102266.00;;;10.30
71463;BMP180;59266;52.608;13.260;2024-01-30T13:52:05;102262.00;;;10.30
71463;BMP180;59266;52.608;13.260;2024-01-30T13:54:32;102260.00;;;10.20
71463;BMP180;59266;52.608;13.260;2024-01-30T13:56:59;102266.00;;;10.30
71463;BMP180;59266;52.608;13.260;2024-01-30T13:59:26;102263.00;;;10.30
71463;BMP180;59266;52.608;13.260;2024-01-30T14:01:53;102262.00;;;10.10
71463;BMP180;59266;52.608;13.260;2024-01-30T14:04:19;102265.00;;;10.20